Kezdőlap
METAR-TAF:

METAR-TAF

Repülőterek :

Ilulissat, Grönland

földrajzi szélesség: 69-14N, földrajzi hosszúság: 051-04W, magasság: 29 m

Jelenlegi meteorológiai megfigyelések

A jelentés 57 perccel ezelõtt készült, 03:50 UTC
Különbözõ irányokból fújó szél 3 kt
Hőmérséklet -18°C
Páratartalom 54%
Légköri nyomás 996 hPa
Látótávolság 10 km, vagy több

METAR: BGJN 100350Z AUTO VRB03KT 9999NDV NCD M18/M25 Q0996

Idő: 01:47 (04:47 UTC)

Előrejelzés

A jelentés 11 órával és 49 perccel ezelõtt készült, 16:58 UTC
Az előrejelzés 09-én 18 óra UTC és 09-én 22 óra UTC között érvényes
Különbözõ irányokból fújó szél 8 kt
Látótávolság 10 km, vagy több
Kevés felhő 20000 lábon

TAF: BGJN 091658Z 0918/0922 VRB08KT 9999 FEW200

Meteorológiai megfigyelések és előrejelzések több, mint 4000 repülőtéren (METAR és TAF jelentéseket).

A térképen piros és sárga pontok jelzik az elérhető meteorológiai állomásokat.

Mozgassa az egeret a pont fölött, hogy megjelenjen az állomás neve.

Azután kattintson az időjárási megfigyelések és előrejelzések megtekintéséhez.

A térkép megváltoztatása: kattintson a fekete keresztel jelölt zöld gombra ráközelítéshez, a vonallal jelölt zöld gombra távolításhoz, vagy a zöld nyilakra a szomszédos térképek eléréséhez.


METAR-TAF: